createdAt,value
2022-08-22T00:07:59.617Z,28
2022-08-22T00:13:07.367Z,28
2022-08-22T00:18:17.741Z,28
2022-08-22T00:23:27.499Z,28
2022-08-22T00:28:35.974Z,28
2022-08-22T00:33:47.653Z,29
2022-08-22T00:38:56.773Z,29
2022-08-22T00:44:06.535Z,29
2022-08-22T00:49:14.374Z,28
2022-08-22T00:54:23.497Z,29
2022-08-22T00:59:31.352Z,29
2022-08-22T01:04:39.842Z,29
2022-08-22T01:09:49.572Z,29
2022-08-22T01:14:58.708Z,29
2022-08-22T01:20:06.543Z,28
2022-08-22T01:25:17.957Z,29
2022-08-22T01:30:25.430Z,29
2022-08-22T01:35:33.907Z,29
2022-08-22T01:40:54.510Z,29
2022-08-22T01:45:52.150Z,29
2022-08-22T01:51:01.253Z,29
2022-08-22T01:56:10.416Z,29
2022-08-22T02:01:19.121Z,29
2022-08-22T02:06:27.975Z,29
2022-08-22T02:11:37.096Z,29
2022-08-22T02:16:47.572Z,29
2022-08-22T02:21:56.616Z,29
2022-08-22T02:27:06.376Z,29
2022-08-22T02:32:14.855Z,29
2022-08-22T02:37:24.628Z,29
2022-08-22T02:42:34.397Z,29
2022-08-22T02:47:44.145Z,29
2022-08-22T02:52:53.893Z,29
2022-08-22T02:58:11.410Z,29
2022-08-22T03:03:23.501Z,29
2022-08-22T03:08:42.765Z,29
2022-08-22T03:13:57.364Z,29
2022-08-22T03:19:08.132Z,29
2022-08-22T03:24:24.329Z,29
2022-08-22T03:29:44.470Z,29
2022-08-22T03:34:54.701Z,29
2022-08-22T03:39:27.287Z,29
2022-08-22T03:44:23.834Z,29
2022-08-22T03:49:34.859Z,29
2022-08-22T03:54:43.352Z,29
2022-08-22T03:59:52.453Z,29
2022-08-22T04:05:00.966Z,29
2022-08-22T04:10:09.429Z,29
2022-08-22T04:15:19.172Z,29
2022-08-22T04:20:27.655Z,30
2022-08-22T04:25:38.070Z,30
2022-08-22T04:30:47.174Z,30
2022-08-22T04:35:56.949Z,30
2022-08-22T04:41:06.060Z,30
2022-08-22T04:46:14.532Z,30
2022-08-22T04:51:23.029Z,30
2022-08-22T04:56:32.780Z,30
2022-08-22T05:01:42.838Z,30
2022-08-22T05:06:51.655Z,30
2022-08-22T05:12:02.079Z,30
2022-08-22T05:17:17.030Z,30
2022-08-22T05:22:21.590Z,30
2022-08-22T05:27:30.691Z,30
2022-08-22T05:32:40.472Z,30
2022-08-22T05:37:50.316Z,30
2022-08-22T05:42:59.336Z,31
2022-08-22T05:48:08.450Z,31
2022-08-22T05:53:17.570Z,31
2022-08-22T05:58:27.349Z,31
2022-08-22T06:03:35.839Z,31
2022-08-22T06:08:44.332Z,31
2022-08-22T06:13:53.746Z,31
2022-08-22T06:19:03.190Z,31
2022-08-22T06:24:12.298Z,31
2022-08-22T06:29:22.059Z,31
2022-08-22T06:34:30.535Z,31
2022-08-22T06:39:39.096Z,32
2022-08-22T06:44:46.871Z,33
2022-08-22T06:49:57.904Z,32
2022-08-22T06:55:06.387Z,33
2022-08-22T07:00:15.514Z,32
2022-08-22T07:05:27.652Z,32
2022-08-22T07:10:44.458Z,32
2022-08-22T07:16:00.625Z,32
2022-08-22T07:21:15.507Z,32
2022-08-22T07:26:31.017Z,32
2022-08-22T07:31:45.902Z,32
2022-08-22T07:37:01.421Z,32
2022-08-22T07:42:17.592Z,32
2022-08-22T07:46:43.094Z,32
2022-08-22T07:51:59.254Z,33
2022-08-22T07:56:59.756Z,33
2022-08-22T08:02:08.119Z,33
2022-08-22T08:07:16.612Z,34
2022-08-22T08:12:25.746Z,33
2022-08-22T08:17:34.224Z,33
2022-08-22T08:22:43.977Z,33
2022-08-22T08:27:53.220Z,33
2022-08-22T08:33:26.998Z,32
2022-08-22T08:38:10.692Z,32
2022-08-22T08:43:20.461Z,32
2022-08-22T08:48:30.219Z,32
2022-08-22T08:53:43.622Z,32
2022-08-22T09:45:17.976Z,32
2022-08-22T09:50:18.137Z,32
2022-08-22T09:55:35.893Z,32
2022-08-22T10:00:36.633Z,32
2022-08-22T10:05:46.373Z,32
2022-08-22T10:10:54.694Z,32
2022-08-22T10:16:04.773Z,32
2022-08-22T10:21:12.456Z,33
2022-08-22T10:26:26.153Z,32
2022-08-22T10:31:32.611Z,32
2022-08-22T10:36:42.377Z,32
2022-08-22T10:41:51.606Z,32
2022-08-22T10:46:59.973Z,32
2022-08-22T10:52:16.458Z,32
2022-08-22T10:57:21.047Z,31
2022-08-22T11:02:29.278Z,32
2022-08-22T11:07:41.468Z,32
2022-08-22T11:10:18.882Z,32
2022-08-22T11:11:08.886Z,32
2022-08-22T11:15:35.648Z,32
2022-08-22T11:18:13.343Z,32
2022-08-22T11:23:21.096Z,31
2022-08-22T11:23:39.919Z,31
2022-08-22T11:28:41.112Z,31
2022-08-22T11:35:00.639Z,31
2022-08-22T11:46:06.644Z,30
2022-08-22T11:47:56.244Z,30
2022-08-22T11:52:25.607Z,30
2022-08-22T11:58:56.943Z,30
2022-08-22T11:59:14.720Z,30
2022-08-22T12:04:25.819Z,31
2022-08-22T12:05:26.688Z,31
2022-08-22T12:10:25.497Z,30
2022-08-22T12:10:35.646Z,30
2022-08-22T12:15:42.229Z,31
2022-08-22T12:15:54.416Z,31
2022-08-22T12:21:03.364Z,31
2022-08-22T12:21:53.890Z,31
2022-08-22T12:27:08.141Z,30
2022-08-22T12:28:15.912Z,30
2022-08-22T12:33:04.144Z,30
2022-08-22T12:34:04.138Z,30
2022-08-22T12:38:38.254Z,30
2022-08-22T12:38:48.083Z,30
2022-08-22T12:43:52.473Z,30
2022-08-22T12:50:22.059Z,30
2022-08-22T12:51:17.383Z,30
2022-08-22T12:55:36.964Z,30
2022-08-22T13:09:15.732Z,29
2022-08-22T13:09:37.206Z,29
2022-08-22T13:14:45.617Z,30
2022-08-22T13:15:19.328Z,30
2022-08-22T13:20:09.187Z,29
2022-08-22T13:20:19.087Z,29
2022-08-22T13:25:26.679Z,29
2022-08-22T13:31:18.960Z,29
2022-08-22T13:33:45.072Z,29
2022-08-22T13:38:46.711Z,29
2022-08-22T13:45:49.587Z,29
2022-08-22T13:48:15.331Z,29
2022-08-22T13:53:30.869Z,29
2022-08-22T13:55:00.286Z,29
2022-08-22T14:00:07.079Z,28
2022-08-22T14:00:22.417Z,28
2022-08-22T14:05:20.509Z,28
2022-08-22T14:11:23.652Z,28
2022-08-22T14:16:44.065Z,28
2022-08-22T14:21:52.774Z,28
2022-08-22T14:23:04.914Z,28
2022-08-22T14:28:09.881Z,28
2022-08-22T14:35:37.552Z,28
2022-08-22T14:36:22.500Z,28
2022-08-22T14:41:03.541Z,28
2022-08-22T14:48:31.789Z,28
2022-08-22T14:49:52.671Z,28
2022-08-22T14:54:51.136Z,28
2022-08-22T14:56:38.456Z,28
2022-08-22T15:01:50.260Z,28
2022-08-22T15:07:05.065Z,28
2022-08-22T15:12:20.463Z,28
2022-08-22T15:17:36.643Z,28
2022-08-22T15:18:26.646Z,28
2022-08-22T15:22:52.137Z,28
2022-08-22T15:24:37.077Z,28
2022-08-22T15:29:46.827Z,28
2022-08-22T15:29:56.713Z,28
2022-08-22T15:35:07.021Z,28
2022-08-22T15:35:17.725Z,28
2022-08-22T15:40:24.775Z,28
2022-08-22T15:40:41.116Z,28
2022-08-22T15:45:41.894Z,28
2022-08-22T15:48:17.174Z,28
2022-08-22T15:53:17.636Z,28
2022-08-22T15:59:44.755Z,28
2022-08-22T16:06:12.612Z,28
2022-08-22T16:06:37.206Z,28
2022-08-22T16:11:44.147Z,28
2022-08-22T16:12:02.045Z,28
2022-08-22T16:17:08.612Z,28
2022-08-22T16:23:19.814Z,28
2022-08-22T16:23:47.098Z,28
2022-08-22T16:28:59.459Z,27
2022-08-22T16:29:19.339Z,27
2022-08-22T16:34:13.892Z,28
2022-08-22T16:38:02.001Z,28
2022-08-22T16:43:10.226Z,28
2022-08-22T16:43:29.169Z,28
2022-08-22T16:48:34.698Z,28
2022-08-22T16:49:40.746Z,28
2022-08-22T16:54:40.775Z,28
2022-08-22T17:00:51.335Z,28
2022-08-22T17:13:34.859Z,28
2022-08-22T17:19:08.299Z,27
2022-08-22T17:24:34.407Z,28
2022-08-22T17:29:27.171Z,27
2022-08-22T17:34:36.304Z,27
2022-08-22T17:39:46.147Z,27
2022-08-22T17:44:58.107Z,27
2022-08-22T17:50:06.730Z,27
2022-08-22T17:55:21.560Z,27
2022-08-22T18:00:37.096Z,27
2022-08-22T18:05:53.288Z,27
2022-08-22T18:11:08.770Z,27
2022-08-22T18:16:24.307Z,28
2022-08-22T18:21:39.817Z,28
2022-08-22T18:26:55.321Z,29
2022-08-22T18:31:20.885Z,28
2022-08-22T18:36:24.450Z,28
2022-08-22T18:41:36.526Z,28
2022-08-22T18:46:42.707Z,28
2022-08-22T18:51:51.158Z,29
2022-08-22T18:57:00.295Z,29
2022-08-22T19:02:10.060Z,29
2022-08-22T19:07:19.184Z,29
2022-08-22T19:12:30.216Z,29
2022-08-22T19:17:40.858Z,29
2022-08-22T19:22:51.413Z,29
2022-08-22T19:27:58.853Z,29
2022-08-22T19:33:07.988Z,28
2022-08-22T19:38:17.085Z,28
2022-08-22T19:43:27.183Z,28
2022-08-22T19:48:36.617Z,27
2022-08-22T19:53:45.096Z,27
2022-08-22T19:58:52.933Z,27
2022-08-22T20:04:03.351Z,27
2022-08-22T20:09:11.836Z,27
2022-08-22T20:14:31.043Z,27
2022-08-22T20:19:30.718Z,27
2022-08-22T20:24:40.568Z,27
2022-08-22T20:29:48.297Z,27
2022-08-22T20:34:58.074Z,27
2022-08-22T20:40:53.660Z,27
2022-08-22T20:45:16.749Z,27
2022-08-22T20:50:27.853Z,27
2022-08-22T20:55:35.251Z,27
2022-08-22T21:00:43.742Z,27
2022-08-22T21:05:52.169Z,27
2022-08-22T21:10:59.995Z,27
2022-08-22T21:16:08.457Z,27
2022-08-22T21:21:18.215Z,27
2022-08-22T21:26:25.424Z,27
2022-08-22T21:31:33.917Z,27
2022-08-22T21:36:43.020Z,27
2022-08-22T21:41:53.441Z,27
2022-08-22T21:47:01.072Z,27
2022-08-22T21:52:09.737Z,27
2022-08-22T21:57:21.254Z,27
2022-08-22T22:02:37.521Z,27
2022-08-22T22:07:52.968Z,27
2022-08-22T22:13:08.463Z,27
2022-08-22T22:18:02.852Z,27
2022-08-22T22:23:02.618Z,27
2022-08-22T22:28:11.028Z,27
2022-08-22T22:33:19.516Z,27
2022-08-22T22:38:30.002Z,27
2022-08-22T22:43:39.699Z,27
2022-08-22T22:48:48.324Z,27
2022-08-22T22:53:57.894Z,27
2022-08-22T22:59:14.801Z,27
2022-08-22T23:04:17.431Z,27
2022-08-22T23:09:45.353Z,27
2022-08-22T23:14:35.660Z,27
2022-08-22T23:19:47.827Z,27
2022-08-22T23:24:53.268Z,27
2022-08-22T23:30:01.804Z,27
2022-08-22T23:35:12.123Z,27
2022-08-22T23:40:21.990Z,27
2022-08-22T23:45:31.664Z,27
2022-08-22T23:50:41.414Z,27
2022-08-22T23:55:49.898Z,27
